Time;durP1;ratioP1;P1;durP2;ratioP2;P2;SDS_P1;SDS_P2;PMS_P1;PMS_P2;Temp;Humidity;BMP_temperature;BMP_pressure;BME280_temperature;BME280_humidity;BME280_pressure;Samples;Min_cycle;Max_cycle;Signal;HPM_P1;HPM_P2
2023/04/04 00:00:17;;;;;;;4.63;1.07;;;5.30;60.50;;;;;;5033626;28;20057;-79
2023/04/04 00:02:43;;;;;;;5.50;1.27;;;5.30;60.30;;;;;;5016099;28;20030;-79
2023/04/04 00:05:08;;;;;;;6.17;1.40;;;5.20;60.50;;;;;;5017376;28;20030;-79
2023/04/04 00:07:34;;;;;;;3.73;1.20;;;5.20;60.50;;;;;;5016941;28;20155;-79
2023/04/04 00:10:00;;;;;;;3.40;1.10;;;5.10;60.50;;;;;;5033432;28;20452;-79
2023/04/04 00:12:26;;;;;;;5.10;1.03;;;5.10;60.70;;;;;;5033247;28;20427;-79
2023/04/04 00:14:52;;;;;;;4.57;1.10;;;5.10;60.80;;;;;;5032884;28;20026;-79
2023/04/04 00:17:18;;;;;;;5.30;1.73;;;5.10;60.70;;;;;;5016913;28;20120;-79
2023/04/04 00:19:43;;;;;;;4.07;1.40;;;5.20;60.80;;;;;;5016070;28;20029;-79
2023/04/04 00:22:09;;;;;;;2.97;1.03;;;5.10;61.10;;;;;;5038163;28;20025;-79
2023/04/04 00:24:35;;;;;;;4.73;1.27;;;5.00;61.00;;;;;;5041737;28;20435;-79
2023/04/04 00:27:01;;;;;;;4.30;1.20;;;5.00;61.30;;;;;;5043271;28;20025;-79
2023/04/04 00:29:27;;;;;;;4.67;1.30;;;5.00;61.40;;;;;;5041702;28;20473;-79
2023/04/04 00:31:53;;;;;;;5.80;1.27;;;5.00;61.50;;;;;;5024878;28;20123;-79
2023/04/04 00:34:18;;;;;;;3.60;1.40;;;4.90;61.40;;;;;;5014456;28;20481;-79
2023/04/04 00:36:45;;;;;;;6.50;1.63;;;4.90;61.80;;;;;;4996075;28;20181;-78
2023/04/04 00:39:10;;;;;;;6.50;1.90;;;5.00;61.80;;;;;;4996322;28;20037;-79
2023/04/04 00:41:36;;;;;;;6.77;1.63;;;5.00;61.80;;;;;;5012587;28;20030;-78
2023/04/04 00:44:02;;;;;;;3.57;1.00;;;4.90;61.90;;;;;;4995964;28;20038;-78
2023/04/04 00:46:28;;;;;;;5.07;1.40;;;4.90;61.70;;;;;;4995720;28;20089;-78
2023/04/04 00:48:54;;;;;;;5.43;1.60;;;4.80;61.90;;;;;;4996503;28;20037;-78
2023/04/04 00:51:20;;;;;;;3.43;1.53;;;4.80;62.10;;;;;;4996667;28;20501;-78
2023/04/04 00:53:47;;;;;;;5.17;1.70;;;4.70;62.00;;;;;;5012731;28;20080;-79
2023/04/04 00:56:14;;;;;;;5.50;1.60;;;4.70;62.00;;;;;;5012580;28;20040;-79
2023/04/04 00:58:43;;;;;;;6.67;1.47;;;4.70;62.10;;;;;;5012584;28;20030;-78
2023/04/04 01:01:12;;;;;;;4.93;1.40;;;4.70;62.20;;;;;;5013352;28;20097;-79
2023/04/04 01:03:38;;;;;;;7.73;1.80;;;4.60;62.20;;;;;;4996727;28;20060;-78
2023/04/04 01:06:05;;;;;;;4.90;1.20;;;4.50;62.40;;;;;;4996316;28;20069;-77
2023/04/04 01:08:33;;;;;;;5.17;1.80;;;4.50;62.50;;;;;;5012481;28;20026;-77
2023/04/04 01:10:58;;;;;;;6.03;1.30;;;4.50;62.60;;;;;;4995966;28;20113;-78
2023/04/04 01:13:25;;;;;;;3.63;1.27;;;4.50;62.90;;;;;;5012324;28;20026;-78
2023/04/04 01:15:51;;;;;;;5.43;1.63;;;4.50;62.90;;;;;;5012624;28;20120;-77
2023/04/04 01:18:21;;;;;;;4.67;1.60;;;4.40;62.80;;;;;;5012394;28;20113;-77
2023/04/04 01:21:03;;;;;;;5.80;1.77;;;4.40;62.70;;;;;;5013450;28;20136;-77
2023/04/04 01:23:59;;;;;;;4.60;1.27;;;4.40;62.90;;;;;;4996294;28;20022;-77
2023/04/04 01:26:27;;;;;;;5.07;1.57;;;4.30;63.10;;;;;;5012395;28;20030;-78
2023/04/04 01:28:54;;;;;;;6.17;1.90;;;4.30;63.20;;;;;;4996233;28;20026;-77
2023/04/04 01:31:37;;;;;;;5.87;1.60;;;4.30;63.10;;;;;;5011986;28;20029;-78
2023/04/04 01:34:29;;;;;;;6.27;1.67;;;4.20;63.20;;;;;;5011998;28;20381;-79
2023/04/04 01:36:58;;;;;;;5.27;1.40;;;4.20;63.30;;;;;;5012725;28;20034;-78
2023/04/04 01:39:38;;;;;;;3.93;1.67;;;4.20;64.20;;;;;;5012326;28;20037;-78
2023/04/04 01:42:06;;;;;;;4.37;1.70;;;4.20;63.50;;;;;;5011927;28;20026;-78
2023/04/04 01:44:32;;;;;;;6.17;2.00;;;4.10;63.70;;;;;;5012045;28;20564;-78
2023/04/04 01:46:58;;;;;;;5.53;1.80;;;4.10;63.90;;;;;;5012122;28;20034;-78
2023/04/04 01:49:23;;;;;;;5.07;1.70;;;4.10;64.10;;;;;;4995865;28;20484;-78
2023/04/04 01:51:53;;;;;;;4.53;1.60;;;4.10;64.30;;;;;;4995685;28;20073;-78
2023/04/04 01:54:19;;;;;;;4.77;1.57;;;4.00;64.50;;;;;;5012395;28;20099;-79
2023/04/04 01:56:45;;;;;;;6.80;1.77;;;4.00;64.30;;;;;;5012131;28;20482;-79
2023/04/04 01:59:11;;;;;;;5.83;1.80;;;4.00;64.50;;;;;;5012129;28;20037;-79
2023/04/04 02:01:37;;;;;;;7.67;2.47;;;4.00;64.50;;;;;;5011705;28;20034;-78
2023/04/04 02:04:03;;;;;;;4.43;1.60;;;4.00;65.00;;;;;;5012111;28;20037;-78
2023/04/04 02:06:29;;;;;;;4.90;1.57;;;3.90;65.00;;;;;;5011836;28;20026;-78
2023/04/04 02:08:55;;;;;;;5.00;1.63;;;3.90;65.00;;;;;;4995316;28;20572;-78
2023/04/04 02:11:21;;;;;;;5.40;1.83;;;3.90;64.90;;;;;;4995533;28;20038;-78
2023/04/04 02:13:48;;;;;;;5.30;1.63;;;3.80;65.00;;;;;;5011777;28;20469;-78
2023/04/04 02:16:14;;;;;;;5.53;1.63;;;3.80;65.20;;;;;;5011868;28;20118;-78
2023/04/04 02:18:40;;;;;;;5.57;1.70;;;3.80;65.20;;;;;;5011679;28;20053;-78
2023/04/04 02:21:06;;;;;;;5.43;2.30;;;3.70;65.30;;;;;;5011820;28;20482;-78
2023/04/04 02:23:31;;;;;;;6.97;1.90;;;3.80;65.50;;;;;;4997981;28;20028;-77
2023/04/04 02:25:57;;;;;;;5.37;2.10;;;3.70;65.90;;;;;;5016881;28;20112;-78
2023/04/04 02:28:23;;;;;;;6.97;2.10;;;3.70;66.00;;;;;;5015086;28;20673;-78
2023/04/04 02:30:48;;;;;;;5.67;2.00;;;3.60;65.90;;;;;;5015349;28;20037;-78
2023/04/04 02:33:14;;;;;;;5.37;1.83;;;3.70;66.30;;;;;;4999070;28;20124;-78
2023/04/04 02:35:40;;;;;;;5.20;1.63;;;3.70;66.20;;;;;;4998947;28;20462;-78
2023/04/04 02:38:05;;;;;;;6.27;1.83;;;3.70;66.70;;;;;;4999290;28;20041;-79
2023/04/04 02:40:31;;;;;;;6.50;2.17;;;3.60;66.20;;;;;;5015026;28;20149;-77
2023/04/04 02:42:56;;;;;;;4.20;1.73;;;3.60;66.20;;;;;;5015242;28;20126;-78
2023/04/04 02:45:22;;;;;;;8.13;2.13;;;3.60;66.30;;;;;;5015000;28;20068;-80
2023/04/04 02:47:51;;;;;;;6.07;1.80;;;3.50;66.40;;;;;;5015218;28;20042;-77
2023/04/04 02:50:17;;;;;;;6.53;1.90;;;3.50;66.60;;;;;;5016184;28;20065;-79
2023/04/04 02:52:43;;;;;;;5.57;2.00;;;3.50;66.40;;;;;;5014889;28;20466;-80
2023/04/04 02:55:09;;;;;;;4.63;1.70;;;3.50;66.60;;;;;;4999124;28;20036;-79
2023/04/04 02:57:35;;;;;;;4.67;1.87;;;3.40;66.60;;;;;;4998630;28;20041;-80
2023/04/04 03:00:03;;;;;;;4.67;1.57;;;3.40;66.60;;;;;;5016402;28;20034;-80
2023/04/04 03:02:28;;;;;;;5.93;2.20;;;3.40;66.70;;;;;;5015756;28;20021;-79
2023/04/04 03:04:54;;;;;;;4.93;1.83;;;3.40;66.80;;;;;;4998987;28;20030;-79
2023/04/04 03:07:21;;;;;;;6.17;1.87;;;3.50;66.90;;;;;;4998537;28;20470;-79
2023/04/04 03:09:47;;;;;;;5.60;1.50;;;3.40;66.80;;;;;;4998784;28;20033;-79
2023/04/04 03:12:13;;;;;;;4.27;1.60;;;3.40;66.90;;;;;;4998205;28;20121;-78
2023/04/04 03:14:39;;;;;;;5.27;1.70;;;3.30;66.90;;;;;;5014757;28;20165;-79
2023/04/04 03:17:06;;;;;;;6.03;1.80;;;3.30;67.00;;;;;;5014774;28;20022;-78
2023/04/04 03:19:32;;;;;;;5.57;1.90;;;3.30;67.10;;;;;;5014421;28;20030;-79
2023/04/04 03:21:58;;;;;;;5.07;1.50;;;3.20;67.20;;;;;;5014244;28;20026;-78
2023/04/04 03:24:24;;;;;;;6.83;1.60;;;3.20;67.20;;;;;;5015616;28;20080;-78
2023/04/04 03:26:49;;;;;;;3.97;1.53;;;3.20;67.20;;;;;;5014581;28;20042;-78
2023/04/04 03:29:16;;;;;;;6.23;1.80;;;3.30;67.40;;;;;;4997866;28;20044;-79
2023/04/04 03:31:41;;;;;;;4.50;1.50;;;3.20;67.40;;;;;;5014026;28;20042;-79
2023/04/04 03:34:08;;;;;;;5.27;2.03;;;3.10;67.50;;;;;;5013849;28;20053;-79
2023/04/04 03:36:33;;;;;;;6.70;1.70;;;3.10;67.90;;;;;;4997944;28;20148;-80
2023/04/04 03:38:59;;;;;;;6.30;1.43;;;3.10;67.70;;;;;;4998381;28;20025;-78
2023/04/04 03:41:25;;;;;;;6.33;2.00;;;3.20;67.80;;;;;;5013992;28;20588;-79
2023/04/04 03:43:50;;;;;;;4.47;1.60;;;3.10;67.70;;;;;;4998020;28;20030;-78
2023/04/04 03:46:16;;;;;;;4.10;1.50;;;3.10;67.70;;;;;;5013775;28;20081;-79
2023/04/04 03:48:41;;;;;;;3.70;1.40;;;3.00;67.80;;;;;;4997679;28;20113;-79
2023/04/04 03:51:07;;;;;;;4.07;1.77;;;3.00;67.80;;;;;;5013946;28;20470;-79
2023/04/04 03:53:35;;;;;;;5.13;1.63;;;2.90;67.90;;;;;;4997409;28;20484;-77
2023/04/04 03:56:01;;;;;;;5.60;1.33;;;2.90;67.90;;;;;;4997803;28;20064;-77
2023/04/04 03:58:27;;;;;;;5.03;1.77;;;2.90;68.00;;;;;;4997553;28;20487;-77
2023/04/04 04:00:53;;;;;;;4.87;1.47;;;2.90;68.00;;;;;;5014539;28;20033;-77
2023/04/04 04:03:20;;;;;;;4.33;1.70;;;2.90;68.00;;;;;;5013208;28;20029;-77
2023/04/04 04:05:46;;;;;;;6.87;1.97;;;2.90;68.10;;;;;;5014000;28;20105;-77
2023/04/04 04:08:12;;;;;;;8.00;1.73;;;2.90;68.10;;;;;;5013682;28;20072;-77
2023/04/04 04:10:38;;;;;;;6.53;2.00;;;2.90;68.20;;;;;;5013611;28;20048;-77
2023/04/04 04:13:03;;;;;;;4.93;1.53;;;2.80;68.00;;;;;;4997173;28;20034;-77
2023/04/04 04:15:29;;;;;;;4.83;2.00;;;2.80;68.10;;;;;;5024118;28;20451;-77
2023/04/04 04:17:55;;;;;;;3.73;1.37;;;2.80;68.10;;;;;;5022429;28;20516;-77
2023/04/04 04:20:21;;;;;;;8.03;2.07;;;2.90;68.20;;;;;;5005164;28;20052;-78
2023/04/04 04:22:47;;;;;;;5.27;1.87;;;2.70;68.50;;;;;;5016134;28;20483;-78
2023/04/04 04:25:13;;;;;;;4.57;1.60;;;2.70;68.60;;;;;;5016401;28;20033;-78
2023/04/04 04:27:40;;;;;;;4.80;1.90;;;2.70;68.60;;;;;;5021605;28;20030;-78
2023/04/04 04:30:06;;;;;;;6.23;2.23;;;2.70;68.70;;;;;;5015404;28;20473;-78
2023/04/04 04:32:32;;;;;;;5.63;1.80;;;2.70;68.80;;;;;;5025834;28;20034;-78
2023/04/04 04:34:58;;;;;;;7.63;1.70;;;2.70;68.90;;;;;;5015908;28;20033;-78
2023/04/04 04:37:25;;;;;;;3.80;1.60;;;2.70;68.80;;;;;;5012830;28;20396;-77
2023/04/04 04:39:51;;;;;;;4.07;1.57;;;2.70;68.80;;;;;;5011971;28;20168;-78
2023/04/04 04:42:17;;;;;;;5.17;1.60;;;2.70;68.90;;;;;;4996155;28;20666;-78
2023/04/04 04:44:42;;;;;;;5.13;1.80;;;2.60;68.90;;;;;;5012494;28;20485;-77
2023/04/04 04:47:08;;;;;;;4.33;2.00;;;2.50;68.90;;;;;;4996273;28;20496;-77
2023/04/04 04:49:34;;;;;;;5.40;1.83;;;2.60;69.10;;;;;;4980297;28;20037;-77
2023/04/04 04:52:00;;;;;;;4.30;1.67;;;2.40;69.20;;;;;;4996333;28;20057;-77
2023/04/04 04:54:25;;;;;;;4.17;1.70;;;2.40;69.50;;;;;;4996581;28;20038;-77
2023/04/04 04:56:51;;;;;;;5.20;1.97;;;2.40;69.70;;;;;;5013853;28;20053;-78
2023/04/04 04:59:16;;;;;;;6.00;2.07;;;2.30;69.90;;;;;;4980494;28;20042;-78
2023/04/04 05:01:42;;;;;;;5.37;2.03;;;2.20;70.00;;;;;;4979791;28;20145;-77
2023/04/04 05:04:08;;;;;;;9.73;2.67;;;2.30;70.30;;;;;;4996002;28;20026;-77
2023/04/04 05:06:33;;;;;;;6.27;2.20;;;2.20;70.40;;;;;;4996496;28;20038;-79
2023/04/04 05:08:59;;;;;;;8.17;2.13;;;2.20;70.60;;;;;;5012608;28;20030;-79
2023/04/04 05:11:25;;;;;;;7.17;2.07;;;2.20;70.70;;;;;;4996144;28;20038;-78
2023/04/04 05:13:50;;;;;;;7.43;2.23;;;2.10;70.90;;;;;;4996258;28;20088;-78
2023/04/04 05:16:16;;;;;;;5.27;1.90;;;2.10;71.00;;;;;;4996277;28;20026;-79
2023/04/04 05:18:42;;;;;;;3.83;1.43;;;2.10;71.20;;;;;;5011232;28;20464;-80
2023/04/04 05:21:08;;;;;;;5.57;2.07;;;2.00;71.30;;;;;;5011098;28;20029;-77
2023/04/04 05:23:34;;;;;;;5.63;1.97;;;2.00;71.50;;;;;;5010127;28;20053;-77
2023/04/04 05:26:00;;;;;;;5.60;2.07;;;2.00;71.60;;;;;;5012127;28;20504;-77
2023/04/04 05:28:25;;;;;;;5.40;1.90;;;2.20;72.00;;;;;;5012323;28;20048;-77
2023/04/04 05:30:52;;;;;;;6.13;1.97;;;1.90;72.00;;;;;;5011363;28;20034;-78
2023/04/04 05:33:18;;;;;;;6.47;1.80;;;2.00;72.10;;;;;;5012399;28;20470;-77
2023/04/04 05:35:43;;;;;;;6.40;1.73;;;2.00;72.20;;;;;;5012046;28;20026;-77
2023/04/04 05:38:09;;;;;;;7.67;1.60;;;2.00;72.30;;;;;;4995310;28;20026;-78
2023/04/04 05:40:35;;;;;;;3.33;1.37;;;2.00;73.00;;;;;;4998771;28;20095;-77
2023/04/04 05:43:03;;;;;;;6.27;2.23;;;2.00;72.30;;;;;;5015596;28;20029;-78
2023/04/04 05:45:30;;;;;;;4.30;1.33;;;2.00;72.30;;;;;;5033457;28;20095;-77
2023/04/04 05:47:56;;;;;;;8.67;2.50;;;2.00;72.40;;;;;;5031696;28;20025;-78
2023/04/04 05:50:21;;;;;;;8.57;3.00;;;2.00;72.50;;;;;;5014767;28;20164;-77
2023/04/04 05:52:47;;;;;;;6.87;2.30;;;2.00;72.60;;;;;;5015359;28;20030;-78
2023/04/04 05:55:13;;;;;;;12.67;2.83;;;2.10;72.70;;;;;;5014998;28;20025;-77
2023/04/04 05:57:47;;;;;;;5.33;2.50;;;2.10;72.80;;;;;;5034349;28;20017;-79
2023/04/04 06:00:14;;;;;;;4.63;1.92;;;2.10;72.80;;;;;;5019534;28;20378;-78
2023/04/04 06:02:40;;;;;;;5.60;2.00;;;2.20;72.90;;;;;;5034819;28;20028;-77
2023/04/04 06:05:07;;;;;;;4.53;2.00;;;2.20;73.00;;;;;;5019266;28;20404;-78
2023/04/04 06:07:33;;;;;;;5.83;2.47;;;2.20;73.00;;;;;;5002276;28;20680;-78
2023/04/04 06:09:58;;;;;;;7.90;3.07;;;2.30;73.20;;;;;;5035219;28;20116;-78
2023/04/04 06:12:24;;;;;;;7.13;2.60;;;2.30;73.90;;;;;;5019003;28;20370;-78
2023/04/04 06:14:50;;;;;;;7.60;2.20;;;2.30;73.30;;;;;;5018825;28;20072;-78
2023/04/04 06:17:15;;;;;;;6.23;2.90;;;2.40;73.50;;;;;;5018424;28;20025;-78
2023/04/04 06:19:41;;;;;;;6.13;2.57;;;2.40;73.50;;;;;;5035681;28;20033;-78
2023/04/04 06:22:07;;;;;;;11.50;2.83;;;2.40;73.70;;;;;;5018953;28;20033;-78
2023/04/04 06:24:32;;;;;;;5.43;2.27;;;2.50;73.80;;;;;;5019264;28;20033;-77
2023/04/04 06:26:58;;;;;;;5.50;2.53;;;2.50;73.80;;;;;;5018457;28;20034;-78
2023/04/04 06:29:25;;;;;;;6.40;2.27;;;2.50;73.90;;;;;;5034438;28;20042;-77
2023/04/04 06:31:50;;;;;;;6.57;2.40;;;2.60;73.90;;;;;;5034502;28;20095;-77
2023/04/04 06:34:16;;;;;;;7.80;2.53;;;2.60;73.80;;;;;;5035161;28;20424;-77
2023/04/04 06:36:41;;;;;;;8.80;3.13;;;2.70;73.90;;;;;;5035478;28;20068;-77
2023/04/04 06:39:07;;;;;;;6.17;2.70;;;2.80;74.10;;;;;;5034966;28;20124;-78
2023/04/04 06:41:33;;;;;;;9.97;2.70;;;2.80;74.20;;;;;;5010332;28;20030;-77
2023/04/04 06:43:59;;;;;;;10.20;3.63;;;2.80;74.30;;;;;;5018762;28;20045;-77
2023/04/04 06:46:26;;;;;;;6.73;3.10;;;2.90;74.50;;;;;;5034792;28;20053;-78
2023/04/04 06:48:51;;;;;;;6.07;2.83;;;3.00;74.50;;;;;;5034337;28;20033;-79
2023/04/04 06:51:17;;;;;;;8.80;2.20;;;3.00;74.50;;;;;;5034781;28;20041;-78
2023/04/04 06:53:43;;;;;;;8.50;2.50;;;3.10;74.50;;;;;;5032720;28;20032;-78
2023/04/04 06:56:09;;;;;;;9.23;2.53;;;3.20;74.60;;;;;;5033491;28;20048;-78
2023/04/04 06:58:34;;;;;;;5.57;1.83;;;3.20;74.60;;;;;;5016902;28;20125;-79
2023/04/04 07:01:03;;;;;;;8.00;2.27;;;3.40;74.60;;;;;;5033976;28;20034;-77
2023/04/04 07:03:29;;;;;;;7.67;2.17;;;3.40;74.40;;;;;;5033735;28;20370;-77
2023/04/04 07:05:55;;;;;;;10.27;2.40;;;3.60;74.30;;;;;;5016555;28;20034;-77
2023/04/04 07:08:20;;;;;;;5.20;2.00;;;3.60;73.90;;;;;;5016460;28;20040;-77
2023/04/04 07:10:46;;;;;;;5.47;1.93;;;3.70;73.70;;;;;;5034224;28;20424;-78
2023/04/04 07:13:12;;;;;;;7.37;2.13;;;3.80;73.60;;;;;;5034486;28;20026;-77
2023/04/04 07:15:37;;;;;;;5.37;2.30;;;3.80;73.30;;;;;;5018052;28;20072;-77
2023/04/04 07:18:03;;;;;;;6.90;2.60;;;3.90;73.20;;;;;;5017287;28;20029;-77
2023/04/04 07:20:29;;;;;;;6.63;2.13;;;4.00;73.10;;;;;;5034628;28;20026;-78
2023/04/04 07:22:54;;;;;;;7.53;2.90;;;4.10;73.00;;;;;;5034271;28;20043;-76
2023/04/04 07:25:20;;;;;;;6.17;1.93;;;4.20;72.90;;;;;;5035717;28;20030;-77
2023/04/04 07:27:46;;;;;;;8.43;2.83;;;4.20;72.70;;;;;;5017958;28;20036;-77
2023/04/04 07:30:12;;;;;;;7.23;2.33;;;4.30;72.60;;;;;;5034454;28;20529;-77
2023/04/04 07:32:38;;;;;;;5.47;1.93;;;4.40;72.50;;;;;;5017192;28;20382;-77
2023/04/04 07:35:07;;;;;;;11.00;2.53;;;4.40;72.30;;;;;;5034271;28;20037;-78
2023/04/04 07:37:37;;;;;;;5.37;1.93;;;4.50;72.20;;;;;;5017502;28;20021;-77
2023/04/04 07:40:05;;;;;;;6.63;1.97;;;4.60;71.90;;;;;;5017305;28;20022;-77
2023/04/04 07:42:30;;;;;;;6.93;1.97;;;4.60;71.60;;;;;;5033886;28;20060;-77
2023/04/04 07:44:56;;;;;;;6.80;2.70;;;4.70;71.40;;;;;;5017300;28;20077;-78
2023/04/04 07:47:22;;;;;;;7.40;2.23;;;4.70;71.20;;;;;;5033960;28;20055;-79
2023/04/04 07:49:47;;;;;;;7.07;2.13;;;4.80;71.10;;;;;;5017204;28;20542;-78
2023/04/04 07:52:13;;;;;;;5.20;1.70;;;4.80;70.90;;;;;;5017306;28;20087;-80
2023/04/04 07:54:41;;;;;;;5.80;1.67;;;4.90;70.80;;;;;;5033577;28;20033;-79
2023/04/04 07:57:10;;;;;;;4.90;1.83;;;5.00;70.80;;;;;;5017616;28;20029;-79
2023/04/04 07:59:36;;;;;;;5.43;2.27;;;5.00;70.50;;;;;;5017628;28;20625;-77
2023/04/04 08:02:02;;;;;;;7.40;1.60;;;5.10;70.40;;;;;;5034402;28;20045;-77
2023/04/04 08:04:27;;;;;;;6.27;2.27;;;5.10;70.30;;;;;;5017388;28;20118;-77
2023/04/04 08:06:53;;;;;;;5.20;2.33;;;5.20;70.20;;;;;;5033375;28;20032;-77
2023/04/04 08:09:19;;;;;;;7.00;2.50;;;5.20;70.10;;;;;;5016953;28;20080;-77
2023/04/04 08:11:44;;;;;;;4.93;1.63;;;5.30;69.90;;;;;;5016822;28;20556;-79
2023/04/04 08:14:10;;;;;;;9.27;2.47;;;5.40;69.80;;;;;;5033510;28;20412;-77
2023/04/04 08:16:37;;;;;;;6.73;2.17;;;5.50;69.70;;;;;;5033274;28;20029;-77
2023/04/04 08:19:03;;;;;;;5.60;2.00;;;5.50;69.00;;;;;;5016434;28;20029;-78
2023/04/04 08:21:29;;;;;;;5.30;1.87;;;5.60;68.90;;;;;;5032192;28;20034;-77
2023/04/04 08:23:55;;;;;;;4.00;1.63;;;5.60;68.70;;;;;;5016573;28;20029;-77
2023/04/04 08:26:21;;;;;;;8.90;2.00;;;5.70;68.60;;;;;;5033136;28;20037;-78
2023/04/04 08:28:47;;;;;;;5.93;1.73;;;5.80;68.50;;;;;;5016654;28;20080;-77
2023/04/04 08:31:13;;;;;;;6.73;1.63;;;5.80;68.50;;;;;;5016158;28;20041;-78
2023/04/04 08:33:39;;;;;;;4.67;1.53;;;5.80;68.20;;;;;;5016469;28;20087;-77
2023/04/04 08:36:04;;;;;;;4.40;1.70;;;5.90;68.00;;;;;;5017415;28;20370;-78
2023/04/04 08:38:30;;;;;;;4.93;1.70;;;5.90;68.40;;;;;;5016248;28;20098;-77
2023/04/04 08:40:57;;;;;;;7.07;1.60;;;6.00;67.80;;;;;;5032904;28;20060;-77
2023/04/04 08:43:24;;;;;;;5.23;1.80;;;6.10;67.80;;;;;;5016218;28;20025;-77
2023/04/04 08:45:53;;;;;;;3.80;1.50;;;6.10;67.40;;;;;;5032654;28;20049;-77
2023/04/04 08:48:20;;;;;;;6.37;2.03;;;6.20;67.00;;;;;;5032820;28;20021;-77
2023/04/04 08:50:46;;;;;;;5.10;1.80;;;6.20;66.50;;;;;;5033678;28;20049;-78
2023/04/04 08:53:14;;;;;;;5.27;1.80;;;6.30;66.10;;;;;;5032294;28;20018;-77
2023/04/04 08:55:41;;;;;;;4.20;1.53;;;6.40;65.90;;;;;;5032716;28;20029;-77
2023/04/04 08:58:07;;;;;;;5.93;1.97;;;6.40;65.70;;;;;;5015988;28;20052;-77
2023/04/04 09:00:33;;;;;;;5.27;1.77;;;6.50;65.30;;;;;;5034109;28;20055;-77
2023/04/04 09:03:11;;;;;;;4.27;1.80;;;6.60;63.90;;;;;;5031601;28;20021;-78
2023/04/04 09:05:38;;;;;;;4.43;1.90;;;6.60;63.70;;;;;;5032588;28;20057;-77
2023/04/04 09:08:06;;;;;;;5.60;1.70;;;6.70;63.70;;;;;;5032458;28;20033;-78
2023/04/04 09:10:32;;;;;;;4.80;1.40;;;6.80;63.30;;;;;;5032118;28;20076;-78
2023/04/04 09:12:58;;;;;;;4.03;1.27;;;6.90;63.30;;;;;;5032138;28;20452;-78
2023/04/04 09:15:24;;;;;;;4.70;1.50;;;6.90;63.00;;;;;;5032248;28;20029;-77
2023/04/04 09:17:50;;;;;;;4.43;1.80;;;7.00;62.50;;;;;;5031836;28;20390;-78
2023/04/04 09:20:35;;;;;;;6.97;1.70;;;7.10;62.20;;;;;;5032610;28;20037;-77
2023/04/04 09:23:04;;;;;;;8.53;1.60;;;7.20;62.30;;;;;;5033416;28;20523;-79
2023/04/04 09:25:30;;;;;;;6.13;1.50;;;7.30;62.00;;;;;;5032187;28;20049;-77
2023/04/04 09:27:56;;;;;;;6.93;1.60;;;7.30;62.10;;;;;;5015506;28;20060;-78
2023/04/04 09:30:23;;;;;;;10.47;1.93;;;7.40;61.30;;;;;;5015765;28;20476;-77
2023/04/04 09:32:49;;;;;;;6.47;1.63;;;7.50;61.40;;;;;;5031487;28;20033;-77
2023/04/04 09:35:15;;;;;;;5.00;1.50;;;7.50;61.10;;;;;;5015646;28;20100;-78
2023/04/04 09:37:41;;;;;;;6.50;1.60;;;7.60;61.20;;;;;;5032049;28;20487;-78
2023/04/04 09:40:12;;;;;;;4.40;1.40;;;7.80;61.00;;;;;;5031729;28;20025;-78
2023/04/04 09:42:39;;;;;;;4.27;1.40;;;7.80;60.50;;;;;;5031705;28;20413;-77
2023/04/04 09:45:06;;;;;;;7.27;2.00;;;7.90;59.40;;;;;;5015196;28;20050;-77
2023/04/04 09:47:32;;;;;;;8.63;1.30;;;8.00;59.40;;;;;;5033615;28;20040;-78
2023/04/04 09:49:59;;;;;;;6.20;2.17;;;8.10;58.60;;;;;;5031825;28;20025;-79
2023/04/04 09:52:25;;;;;;;7.10;1.87;;;8.10;58.40;;;;;;5014995;28;20481;-76
2023/04/04 09:54:59;;;;;;;6.33;1.50;;;8.20;58.40;;;;;;5031933;28;20072;-78
2023/04/04 09:57:33;;;;;;;6.60;1.90;;;8.30;58.70;;;;;;5031671;28;20067;-78
2023/04/04 10:00:00;;;;;;;6.63;1.88;;;8.30;58.60;;;;;;5031294;28;20065;-78
2023/04/04 10:02:29;;;;;;;6.00;1.50;;;8.40;57.80;;;;;;5031447;28;20599;-78
2023/04/04 10:04:56;;;;;;;6.37;1.63;;;8.50;57.90;;;;;;5031859;28;20021;-79
2023/04/04 10:07:26;;;;;;;6.70;1.90;;;8.50;57.80;;;;;;5015733;28;20058;-78
2023/04/04 10:09:52;;;;;;;6.93;1.60;;;8.70;57.80;;;;;;5017410;28;20496;-78
2023/04/04 10:12:23;;;;;;;5.50;1.83;;;8.90;57.60;;;;;;5032077;28;20038;-79
2023/04/04 10:15:00;;;;;;;4.70;1.60;;;9.20;56.70;;;;;;5031314;28;20075;-77
2023/04/04 10:17:40;;;;;;;5.13;1.97;;;9.50;56.20;;;;;;5031281;28;20022;-78
2023/04/04 10:20:10;;;;;;;4.07;1.57;;;10.00;56.50;;;;;;5031731;28;20037;-79
2023/04/04 10:22:37;;;;;;;6.57;1.60;;;10.50;57.10;;;;;;5015405;28;20033;-79
2023/04/04 10:25:04;;;;;;;6.38;1.60;;;11.10;56.80;;;;;;5015144;28;20461;-77
2023/04/04 10:27:31;;;;;;;6.22;1.15;;;11.70;54.70;;;;;;5014768;28;20495;-80
2023/04/04 10:29:57;;;;;;;3.88;1.00;;;12.50;54.60;;;;;;5031627;28;20485;-77
2023/04/04 10:32:31;;;;;;;4.25;1.25;;;13.20;55.40;;;;;;5032345;28;20049;-78
2023/04/04 10:35:02;;;;;;;6.43;1.20;;;14.10;55.50;;;;;;5031493;28;20033;-78
2023/04/04 10:37:36;;;;;;;5.15;1.10;;;14.90;53.80;;;;;;5032430;28;20029;-78
2023/04/04 10:40:09;;;;;;;4.05;0.90;;;15.70;50.70;;;;;;5031331;28;20026;-77
2023/04/04 10:42:46;;;;;;;4.82;1.30;;;16.30;50.30;;;;;;5031445;28;20033;-78
2023/04/04 10:45:13;;;;;;;5.10;1.20;;;16.90;48.60;;;;;;5034575;28;20130;-79
2023/04/04 10:47:40;;;;;;;4.13;1.20;;;17.60;48.00;;;;;;5018536;28;20480;-79
2023/04/04 10:50:10;;;;;;;3.78;1.30;;;18.20;46.90;;;;;;5034594;28;20053;-79
2023/04/04 10:52:38;;;;;;;5.57;1.00;;;18.90;44.80;;;;;;5034681;28;20057;-78
2023/04/04 10:55:07;;;;;;;4.60;0.82;;;19.40;44.30;;;;;;5034745;28;20520;-79
2023/04/04 10:57:37;;;;;;;2.65;0.95;;;19.90;43.70;;;;;;5036186;28;20075;-78
2023/04/04 11:00:11;;;;;;;3.05;0.95;;;20.40;42.00;;;;;;5034465;28;20053;-78
2023/04/04 11:02:54;;;;;;;4.05;1.20;;;20.80;40.30;;;;;;5034327;28;20029;-78
2023/04/04 11:05:22;;;;;;;3.92;1.17;;;21.10;40.40;;;;;;5036214;28;20061;-78
2023/04/04 11:07:59;;;;;;;4.35;1.10;;;21.60;40.10;;;;;;5034701;28;20107;-79
2023/04/04 11:10:34;;;;;;;4.15;1.10;;;21.90;39.00;;;;;;5035653;28;20037;-79
2023/04/04 11:13:06;;;;;;;5.78;1.50;;;22.20;38.50;;;;;;5034319;28;20085;-78
2023/04/04 11:15:56;;;;;;;2.92;0.90;;;22.50;38.80;;;;;;5034236;28;20420;-79
2023/04/04 11:18:44;;;;;;;6.43;0.88;;;23.00;37.60;;;;;;5034613;28;20037;-80
2023/04/04 11:21:13;;;;;;;3.28;0.80;;;23.30;37.30;;;;;;5028456;28;20477;-79
2023/04/04 11:23:47;;;;;;;3.92;1.42;;;23.70;37.70;;;;;;5034185;28;20021;-78
2023/04/04 11:26:34;;;;;;;4.57;1.42;;;24.00;35.60;;;;;;5035324;28;20033;-79
2023/04/04 11:29:00;;;;;;;4.63;1.10;;;24.10;34.30;;;;;;5034253;28;20029;-79
2023/04/04 11:31:27;;;;;;;2.42;1.00;;;24.30;34.80;;;;;;5035520;28;20037;-79
2023/04/04 11:34:05;;;;;;;3.72;1.00;;;24.50;34.40;;;;;;5034015;28;20031;-79
2023/04/04 11:36:34;;;;;;;3.33;1.08;;;24.80;34.60;;;;;;5035106;28;20035;-79
2023/04/04 11:39:07;;;;;;;4.22;1.30;;;25.00;34.50;;;;;;5035659;28;20026;-79
2023/04/04 11:42:09;;;;;;;3.33;1.10;;;25.30;33.90;;;;;;5034204;28;20040;-79
2023/04/04 11:45:01;;;;;;;4.80;1.55;;;25.50;33.30;;;;;;5033943;28;20025;-79
2023/04/04 11:47:28;;;;;;;2.53;0.90;;;25.70;33.00;;;;;;5033699;28;20045;-78
2023/04/04 11:49:55;;;;;;;4.28;1.50;;;25.90;33.50;;;;;;5017408;28;20060;-79
2023/04/04 11:52:22;;;;;;;4.68;1.23;;;26.00;32.90;;;;;;5017193;28;20041;-79
2023/04/04 11:54:49;;;;;;;4.18;1.10;;;26.10;32.60;;;;;;5017412;28;20022;-79
2023/04/04 11:57:19;;;;;;;4.20;1.15;;;26.20;31.80;;;;;;5033435;28;20520;-79
2023/04/04 11:59:46;;;;;;;4.25;1.15;;;26.30;31.50;;;;;;5017394;28;20036;-80
2023/04/04 12:02:15;;;;;;;4.20;1.13;;;26.40;31.40;;;;;;5033547;28;20036;-79
2023/04/04 12:04:44;;;;;;;5.05;1.23;;;26.50;31.60;;;;;;5033314;28;20036;-79
2023/04/04 12:07:11;;;;;;;3.28;0.90;;;26.80;31.50;;;;;;5017303;28;20030;-79
2023/04/04 12:09:38;;;;;;;3.97;1.00;;;27.00;31.40;;;;;;5034843;28;20029;-79
2023/04/04 12:12:04;;;;;;;3.08;1.13;;;27.20;31.10;;;;;;5017083;28;20081;-79
2023/04/04 12:14:31;;;;;;;3.35;1.20;;;27.30;30.70;;;;;;5033312;28;20044;-79
2023/04/04 12:16:58;;;;;;;2.85;1.02;;;27.30;30.40;;;;;;5033122;28;20025;-79
2023/04/04 12:19:26;;;;;;;2.83;1.10;;;27.40;30.40;;;;;;5033335;28;20116;-79
2023/04/04 12:21:53;;;;;;;2.53;0.95;;;27.50;30.50;;;;;;5033206;28;20476;-79
2023/04/04 12:24:19;;;;;;;4.13;1.02;;;27.60;30.40;;;;;;5032762;28;20025;-79
2023/04/04 12:26:47;;;;;;;3.65;0.93;;;27.70;30.30;;;;;;5016448;28;20029;-79
2023/04/04 12:29:15;;;;;;;3.33;1.17;;;27.80;29.90;;;;;;5034455;28;20061;-79
2023/04/04 12:31:43;;;;;;;3.35;1.02;;;28.00;29.90;;;;;;5033744;28;20065;-79
2023/04/04 12:34:17;;;;;;;3.50;0.88;;;28.20;29.50;;;;;;5032635;28;20057;-79
2023/04/04 12:36:46;;;;;;;2.80;0.90;;;28.20;29.20;;;;;;5016442;28;20033;-79
2023/04/04 12:39:14;;;;;;;4.35;1.13;;;28.40;29.30;;;;;;5032777;28;20072;-79
2023/04/04 12:42:08;;;;;;;3.70;0.90;;;28.50;29.50;;;;;;5032862;28;20045;-79
2023/04/04 12:44:34;;;;;;;6.13;1.45;;;28.50;28.70;;;;;;5031836;28;20045;-79
2023/04/04 12:47:05;;;;;;;3.60;1.17;;;28.60;29.10;;;;;;5034180;28;20046;-79
2023/04/04 12:49:43;;;;;;;4.68;1.17;;;28.70;29.00;;;;;;5034163;28;20044;-80
2023/04/04 12:52:25;;;;;;;3.40;1.10;;;28.70;28.80;;;;;;5032424;28;20045;-80
2023/04/04 12:54:51;;;;;;;2.20;1.10;;;28.70;28.40;;;;;;5033008;28;20132;-79
2023/04/04 12:57:22;;;;;;;3.45;1.25;;;28.80;28.50;;;;;;5032570;28;20041;-78